TFY weather

Tarfaya Airport
Tarfaya, LaĆ¢youne (EH) Province, Morocco

Public forecast

Using degrees Celsius for public forecast. Weather courtesy of forecast.io.

METAR (pilot weather report)

Closest report is Hassan I Airport, 50.5 nm (93.5 km) SSW. Retrieved 2019/07/21 18:00 UTC (46 minutes ago):

GMML 211800Z 04021KT 8000 NSC 26/17 Q1016 NOSIG

TAF (pilot weather forecast)

Closest forecast is Hassan I Airport, 50.5 nm (93.5 km) SSW. Retrieved 2019/07/21 18:15 UTC (31 minutes ago):

TAF GMML 211700Z 2118/2224 33020KT 8000 NSC BECMG 2122/2124 BKN020 BECMG 2210/2212 NSC